Luray, KS (67649)

12:18 PM CDT on October 02, 2014 (GMT -0500)
Craven / Shiroky Farm | Change Station
CLOSE
Current Station
Personal Weather Station
Location: Luray, KS
Elevation: 1730 ft
Nearby Weather Stations

Elev 1730 ft 39.02 °N, 98.67 °W | Updated 26 seconds ago

Overcast
Overcast
57.9 °F
Feels Like 57.9 °F
N
15.0
Wind Variable Wind from North
Gusts 26.0 mph

Today
High -- | Low -- °F
--% Chance of Precip.
Yesterday
High -- | Low -- °F
Precip. -- in
7:31 AM 7:15 PM
First Quarter, 60% visible
Pressure 29.89 in
Visibility 10.0 miles
Clouds Few 1600 ft
Mostly Cloudy 2100 ft
Mostly Cloudy 2800 ft
Dew Point 51 °F
Humidity 78%
Rainfall 0.11 in
Snow Depth Not available.
UV 3 out of 12
Pollen .50 out of 12
Air Quality Not available.
Flu Activity Not available.
METAR KRSL 021653Z AUTO 34019G24KT 10SM FEW016 BKN021 BKN028 14/11 A2991 RMK AO2 PK WND 33027/1557 SLP121 T01390106

More Conditions Fewer Conditions

Pressure 29.89 in
Visibility 10.0 miles
Clouds Few 1600 ft
Mostly Cloudy 2100 ft
Mostly Cloudy 2800 ft
Dew Point 51 °F
Humidity 78%
Rainfall 0.11 in
Snow Depth Not available.
UV 3 out of 12
Pollen .50 out of 12
Air Quality Not available.
Flu Activity Not available.
METAR KRSL 021653Z AUTO 34019G24KT 10SM FEW016 BKN021 BKN028 14/11 A2991 RMK AO2 PK WND 33027/1557 SLP121 T01390106

More Conditions Fewer Conditions

10-Day Weather Forecast

Almanac

Astronomy

Oct. 02, 2014 Rise Set
Actual Time 7:31 AM CDT 7:15 PM CDT
Civil Twilight 7:04 AM CDT 7:42 PM CDT
Nautical Twilight 6:33 AM CDT 8:13 PM CDT
Astronomical Twilight 6:02 AM CDT 8:44 PM CDT
Moon 3:20 PM CDT 12:52 AM CDT
Length of Visible Light 12h 37m
Length of Day
11h 44m
Tomorrow will be 2m 31s shorter.
First Quarter, 60% of the Moon is Illuminated
Today
First Quarter
Oct 8
Full
Oct 15
Last Quarter
Oct 23
New
Oct 30
First Quarter

Today's Extremes

State Highs State Lows

Community

WunderPhotos

Upload Photos

1,758,300 photos uploaded!

Nearby

Snow Depth

Station Depth Elevation
No new snow has been reported.

Earthquake Activity

City Distance Mag. Time & Date
Harper, Kansas 132 miles 3.3 1:11 AM CDT
2014-10-01
Harper, Kansas 130 miles 2.9 1:49 PM CDT
2014-09-30
Harper, Kansas 130 miles 3.1 10:24 AM CDT
2014-09-30
Harper, Kansas 131 miles 3.8 9:55 AM CDT
2014-09-30
Minimum magnitude displayed is 2.5.

Coastal Water Temperatures

Place Temperature
No Stations Reporting

Nearby Weather Stations